sensor_id;sensor_type;location;lat;lon;timestamp;temperature;humidity
12885;DHT22;6510;51.362;7.370;2023-08-08T00:02:02;13.00;99.90
12885;DHT22;6510;51.362;7.370;2023-08-08T00:04:27;12.90;99.90
12885;DHT22;6510;51.362;7.370;2023-08-08T00:06:53;12.80;99.90
12885;DHT22;6510;51.362;7.370;2023-08-08T00:09:18;12.70;99.90
12885;DHT22;6510;51.362;7.370;2023-08-08T00:11:44;12.70;99.90
12885;DHT22;6510;51.362;7.370;2023-08-08T00:14:10;12.60;99.90
12885;DHT22;6510;51.362;7.370;2023-08-08T00:16:35;12.60;99.90
12885;DHT22;6510;51.362;7.370;2023-08-08T00:19:01;12.60;99.90
12885;DHT22;6510;51.362;7.370;2023-08-08T00:21:26;12.60;99.90
12885;DHT22;6510;51.362;7.370;2023-08-08T00:23:52;12.70;99.90
12885;DHT22;6510;51.362;7.370;2023-08-08T00:26:17;12.60;99.90
12885;DHT22;6510;51.362;7.370;2023-08-08T00:28:43;12.60;99.90
12885;DHT22;6510;51.362;7.370;2023-08-08T00:31:09;12.50;99.90
12885;DHT22;6510;51.362;7.370;2023-08-08T00:33:34;12.50;99.90
12885;DHT22;6510;51.362;7.370;2023-08-08T00:36:00;12.50;99.90
12885;DHT22;6510;51.362;7.370;2023-08-08T00:38:25;12.50;99.90
12885;DHT22;6510;51.362;7.370;2023-08-08T00:40:51;12.60;99.90
12885;DHT22;6510;51.362;7.370;2023-08-08T00:43:17;12.60;99.90
12885;DHT22;6510;51.362;7.370;2023-08-08T00:45:43;12.60;99.90
12885;DHT22;6510;51.362;7.370;2023-08-08T00:48:09;12.70;99.90
12885;DHT22;6510;51.362;7.370;2023-08-08T00:50:36;12.70;99.90
12885;DHT22;6510;51.362;7.370;2023-08-08T00:53:03;12.70;99.90
12885;DHT22;6510;51.362;7.370;2023-08-08T00:55:29;12.70;99.90
12885;DHT22;6510;51.362;7.370;2023-08-08T00:57:56;12.70;99.90
12885;DHT22;6510;51.362;7.370;2023-08-08T01:00:22;12.70;99.90
12885;DHT22;6510;51.362;7.370;2023-08-08T01:02:47;12.70;99.90
12885;DHT22;6510;51.362;7.370;2023-08-08T01:05:13;12.70;99.90
12885;DHT22;6510;51.362;7.370;2023-08-08T01:10:24;12.60;99.90
12885;DHT22;6510;51.362;7.370;2023-08-08T01:12:53;12.60;99.90
12885;DHT22;6510;51.362;7.370;2023-08-08T01:15:19;12.60;99.90
12885;DHT22;6510;51.362;7.370;2023-08-08T01:17:46;12.60;99.90
12885;DHT22;6510;51.362;7.370;2023-08-08T01:20:14;12.70;99.90
12885;DHT22;6510;51.362;7.370;2023-08-08T01:25:16;12.60;99.90
12885;DHT22;6510;51.362;7.370;2023-08-08T01:27:45;12.60;99.90
12885;DHT22;6510;51.362;7.370;2023-08-08T01:30:10;12.60;99.90
12885;DHT22;6510;51.362;7.370;2023-08-08T01:32:36;12.50;99.90
12885;DHT22;6510;51.362;7.370;2023-08-08T01:35:02;12.40;99.90
12885;DHT22;6510;51.362;7.370;2023-08-08T01:37:44;12.40;99.90
12885;DHT22;6510;51.362;7.370;2023-08-08T01:40:13;12.30;99.90
12885;DHT22;6510;51.362;7.370;2023-08-08T01:42:44;12.30;99.90
12885;DHT22;6510;51.362;7.370;2023-08-08T01:45:10;12.30;99.90
12885;DHT22;6510;51.362;7.370;2023-08-08T01:47:37;12.30;99.90
12885;DHT22;6510;51.362;7.370;2023-08-08T01:50:02;12.20;99.90
12885;DHT22;6510;51.362;7.370;2023-08-08T01:52:28;12.20;99.90
12885;DHT22;6510;51.362;7.370;2023-08-08T01:54:54;12.10;99.90
12885;DHT22;6510;51.362;7.370;2023-08-08T01:57:19;12.20;99.90
12885;DHT22;6510;51.362;7.370;2023-08-08T01:59:45;12.20;99.90
12885;DHT22;6510;51.362;7.370;2023-08-08T02:02:11;12.20;99.90
12885;DHT22;6510;51.362;7.370;2023-08-08T02:04:37;12.10;99.90
12885;DHT22;6510;51.362;7.370;2023-08-08T02:07:02;12.10;99.90
12885;DHT22;6510;51.362;7.370;2023-08-08T02:09:28;12.10;99.90
12885;DHT22;6510;51.362;7.370;2023-08-08T02:11:54;12.20;99.90
12885;DHT22;6510;51.362;7.370;2023-08-08T02:14:20;12.20;99.90
12885;DHT22;6510;51.362;7.370;2023-08-08T02:16:45;12.10;99.90
12885;DHT22;6510;51.362;7.370;2023-08-08T02:19:11;12.20;99.90
12885;DHT22;6510;51.362;7.370;2023-08-08T02:21:36;12.20;99.90
12885;DHT22;6510;51.362;7.370;2023-08-08T02:24:02;12.20;99.90
12885;DHT22;6510;51.362;7.370;2023-08-08T02:26:28;12.20;99.90
12885;DHT22;6510;51.362;7.370;2023-08-08T02:28:54;12.20;99.90
12885;DHT22;6510;51.362;7.370;2023-08-08T02:31:19;12.30;99.90
12885;DHT22;6510;51.362;7.370;2023-08-08T02:33:50;12.30;99.90
12885;DHT22;6510;51.362;7.370;2023-08-08T02:36:16;12.40;99.90
12885;DHT22;6510;51.362;7.370;2023-08-08T02:38:42;12.30;99.90
12885;DHT22;6510;51.362;7.370;2023-08-08T02:41:08;12.30;99.90
12885;DHT22;6510;51.362;7.370;2023-08-08T02:43:34;12.20;99.90
12885;DHT22;6510;51.362;7.370;2023-08-08T02:45:59;12.10;99.90
12885;DHT22;6510;51.362;7.370;2023-08-08T02:48:25;12.10;99.90
12885;DHT22;6510;51.362;7.370;2023-08-08T02:50:50;12.10;99.90
12885;DHT22;6510;51.362;7.370;2023-08-08T02:53:16;12.20;99.90
12885;DHT22;6510;51.362;7.370;2023-08-08T02:55:41;12.10;99.90
12885;DHT22;6510;51.362;7.370;2023-08-08T02:58:07;12.10;99.90
12885;DHT22;6510;51.362;7.370;2023-08-08T03:00:33;12.20;99.90
12885;DHT22;6510;51.362;7.370;2023-08-08T03:02:58;12.20;99.90
12885;DHT22;6510;51.362;7.370;2023-08-08T03:05:24;12.30;99.90
12885;DHT22;6510;51.362;7.370;2023-08-08T03:07:50;12.30;99.90
12885;DHT22;6510;51.362;7.370;2023-08-08T03:10:15;12.40;99.90
12885;DHT22;6510;51.362;7.370;2023-08-08T03:12:41;12.40;99.90
12885;DHT22;6510;51.362;7.370;2023-08-08T03:15:07;12.40;99.90
12885;DHT22;6510;51.362;7.370;2023-08-08T03:17:33;12.40;99.90
12885;DHT22;6510;51.362;7.370;2023-08-08T03:20:00;12.40;99.90
12885;DHT22;6510;51.362;7.370;2023-08-08T03:22:26;12.40;99.90
12885;DHT22;6510;51.362;7.370;2023-08-08T03:24:51;12.40;99.90
12885;DHT22;6510;51.362;7.370;2023-08-08T03:27:17;12.50;99.90
12885;DHT22;6510;51.362;7.370;2023-08-08T03:29:42;12.50;99.90
12885;DHT22;6510;51.362;7.370;2023-08-08T03:32:08;12.40;99.90
12885;DHT22;6510;51.362;7.370;2023-08-08T03:34:41;12.40;99.90
12885;DHT22;6510;51.362;7.370;2023-08-08T03:37:10;12.40;99.90
12885;DHT22;6510;51.362;7.370;2023-08-08T03:39:35;12.30;99.90
12885;DHT22;6510;51.362;7.370;2023-08-08T03:42:01;12.20;99.90
12885;DHT22;6510;51.362;7.370;2023-08-08T03:44:27;12.10;99.90
12885;DHT22;6510;51.362;7.370;2023-08-08T03:46:52;12.00;99.90
12885;DHT22;6510;51.362;7.370;2023-08-08T03:49:18;12.00;99.90
12885;DHT22;6510;51.362;7.370;2023-08-08T03:51:43;12.00;99.90
12885;DHT22;6510;51.362;7.370;2023-08-08T03:54:09;12.00;99.90
12885;DHT22;6510;51.362;7.370;2023-08-08T03:56:35;12.10;99.90
12885;DHT22;6510;51.362;7.370;2023-08-08T03:59:00;12.00;99.90
12885;DHT22;6510;51.362;7.370;2023-08-08T04:01:26;12.00;99.90
12885;DHT22;6510;51.362;7.370;2023-08-08T04:03:51;12.00;99.90
12885;DHT22;6510;51.362;7.370;2023-08-08T04:06:17;12.00;99.90
12885;DHT22;6510;51.362;7.370;2023-08-08T04:08:43;11.90;99.90
12885;DHT22;6510;51.362;7.370;2023-08-08T04:11:08;11.80;99.90
12885;DHT22;6510;51.362;7.370;2023-08-08T04:13:34;11.80;99.90
12885;DHT22;6510;51.362;7.370;2023-08-08T04:16:00;11.70;99.90
12885;DHT22;6510;51.362;7.370;2023-08-08T04:18:26;11.70;99.90
12885;DHT22;6510;51.362;7.370;2023-08-08T04:20:52;11.70;99.90
12885;DHT22;6510;51.362;7.370;2023-08-08T04:23:17;11.70;99.90
12885;DHT22;6510;51.362;7.370;2023-08-08T04:25:43;11.80;99.90
12885;DHT22;6510;51.362;7.370;2023-08-08T04:28:09;11.80;99.90
12885;DHT22;6510;51.362;7.370;2023-08-08T04:30:35;11.80;99.90
12885;DHT22;6510;51.362;7.370;2023-08-08T04:33:00;11.80;99.90
12885;DHT22;6510;51.362;7.370;2023-08-08T04:35:26;11.80;99.90
12885;DHT22;6510;51.362;7.370;2023-08-08T04:37:52;11.70;99.90
12885;DHT22;6510;51.362;7.370;2023-08-08T04:40:17;11.70;99.90
12885;DHT22;6510;51.362;7.370;2023-08-08T04:42:43;11.80;99.90
12885;DHT22;6510;51.362;7.370;2023-08-08T04:45:09;11.80;99.90
12885;DHT22;6510;51.362;7.370;2023-08-08T04:47:34;11.80;99.90
12885;DHT22;6510;51.362;7.370;2023-08-08T04:50:00;11.80;99.90
12885;DHT22;6510;51.362;7.370;2023-08-08T04:52:26;11.80;99.90
12885;DHT22;6510;51.362;7.370;2023-08-08T04:54:51;11.90;99.90
12885;DHT22;6510;51.362;7.370;2023-08-08T04:57:17;11.90;99.90
12885;DHT22;6510;51.362;7.370;2023-08-08T04:59:42;11.90;99.90
12885;DHT22;6510;51.362;7.370;2023-08-08T05:02:08;11.90;99.90
12885;DHT22;6510;51.362;7.370;2023-08-08T05:04:34;11.90;99.90
12885;DHT22;6510;51.362;7.370;2023-08-08T05:06:59;11.90;99.90
12885;DHT22;6510;51.362;7.370;2023-08-08T05:09:25;11.90;99.90
12885;DHT22;6510;51.362;7.370;2023-08-08T05:11:52;12.00;99.90
12885;DHT22;6510;51.362;7.370;2023-08-08T05:14:18;12.00;99.90
12885;DHT22;6510;51.362;7.370;2023-08-08T05:16:44;12.00;99.90
12885;DHT22;6510;51.362;7.370;2023-08-08T05:19:10;12.00;99.90
12885;DHT22;6510;51.362;7.370;2023-08-08T05:21:35;12.00;99.90
12885;DHT22;6510;51.362;7.370;2023-08-08T05:24:01;12.00;99.90
12885;DHT22;6510;51.362;7.370;2023-08-08T05:26:26;12.00;99.90
12885;DHT22;6510;51.362;7.370;2023-08-08T05:28:52;12.10;99.90
12885;DHT22;6510;51.362;7.370;2023-08-08T05:31:17;12.10;99.90
12885;DHT22;6510;51.362;7.370;2023-08-08T05:33:43;12.20;99.90
12885;DHT22;6510;51.362;7.370;2023-08-08T05:36:09;12.30;99.90
12885;DHT22;6510;51.362;7.370;2023-08-08T05:38:34;12.30;99.90
12885;DHT22;6510;51.362;7.370;2023-08-08T05:41:00;12.30;99.90
12885;DHT22;6510;51.362;7.370;2023-08-08T05:43:25;12.30;99.90
12885;DHT22;6510;51.362;7.370;2023-08-08T05:45:53;12.30;99.90
12885;DHT22;6510;51.362;7.370;2023-08-08T05:48:18;12.30;99.90
12885;DHT22;6510;51.362;7.370;2023-08-08T05:50:44;12.30;99.90
12885;DHT22;6510;51.362;7.370;2023-08-08T05:53:10;12.40;99.90
12885;DHT22;6510;51.362;7.370;2023-08-08T05:55:35;12.40;99.90
12885;DHT22;6510;51.362;7.370;2023-08-08T05:58:01;12.40;99.90
12885;DHT22;6510;51.362;7.370;2023-08-08T06:00:27;12.40;99.90
12885;DHT22;6510;51.362;7.370;2023-08-08T06:02:52;12.40;99.90
12885;DHT22;6510;51.362;7.370;2023-08-08T06:05:21;12.40;99.90
12885;DHT22;6510;51.362;7.370;2023-08-08T06:07:47;12.40;99.90
12885;DHT22;6510;51.362;7.370;2023-08-08T06:10:13;12.40;99.90
12885;DHT22;6510;51.362;7.370;2023-08-08T06:12:38;12.50;99.90
12885;DHT22;6510;51.362;7.370;2023-08-08T06:15:05;12.50;99.90
12885;DHT22;6510;51.362;7.370;2023-08-08T06:17:30;12.50;99.90
12885;DHT22;6510;51.362;7.370;2023-08-08T06:19:56;12.50;99.90
12885;DHT22;6510;51.362;7.370;2023-08-08T06:22:22;12.60;99.90
12885;DHT22;6510;51.362;7.370;2023-08-08T06:24:48;12.60;99.90
12885;DHT22;6510;51.362;7.370;2023-08-08T06:27:14;12.50;99.90
12885;DHT22;6510;51.362;7.370;2023-08-08T06:29:39;12.50;99.90
12885;DHT22;6510;51.362;7.370;2023-08-08T06:32:05;12.50;99.90
12885;DHT22;6510;51.362;7.370;2023-08-08T06:34:31;12.50;99.90
12885;DHT22;6510;51.362;7.370;2023-08-08T06:36:57;12.50;99.90
12885;DHT22;6510;51.362;7.370;2023-08-08T06:39:23;12.50;99.90
12885;DHT22;6510;51.362;7.370;2023-08-08T06:41:48;12.50;99.90
12885;DHT22;6510;51.362;7.370;2023-08-08T06:44:14;12.50;99.90
12885;DHT22;6510;51.362;7.370;2023-08-08T06:46:40;12.50;99.90
12885;DHT22;6510;51.362;7.370;2023-08-08T06:49:05;12.60;99.90
12885;DHT22;6510;51.362;7.370;2023-08-08T06:51:32;12.70;99.90
12885;DHT22;6510;51.362;7.370;2023-08-08T06:53:58;12.70;99.90
12885;DHT22;6510;51.362;7.370;2023-08-08T06:56:24;12.70;99.90
12885;DHT22;6510;51.362;7.370;2023-08-08T06:58:51;12.80;99.90
12885;DHT22;6510;51.362;7.370;2023-08-08T07:01:17;12.70;99.90
12885;DHT22;6510;51.362;7.370;2023-08-08T07:03:42;12.70;99.90
12885;DHT22;6510;51.362;7.370;2023-08-08T07:06:09;12.80;99.90
12885;DHT22;6510;51.362;7.370;2023-08-08T07:08:35;13.10;99.90
12885;DHT22;6510;51.362;7.370;2023-08-08T07:11:02;13.20;99.90
12885;DHT22;6510;51.362;7.370;2023-08-08T07:13:28;13.20;99.90
12885;DHT22;6510;51.362;7.370;2023-08-08T07:15:54;13.10;99.90
12885;DHT22;6510;51.362;7.370;2023-08-08T07:18:19;13.10;99.90
12885;DHT22;6510;51.362;7.370;2023-08-08T07:20:45;13.20;99.90
12885;DHT22;6510;51.362;7.370;2023-08-08T07:23:11;13.30;99.90
12885;DHT22;6510;51.362;7.370;2023-08-08T07:25:36;13.40;99.90
12885;DHT22;6510;51.362;7.370;2023-08-08T07:28:02;13.50;99.90
12885;DHT22;6510;51.362;7.370;2023-08-08T07:30:27;13.80;99.90
12885;DHT22;6510;51.362;7.370;2023-08-08T07:32:53;14.30;99.90
12885;DHT22;6510;51.362;7.370;2023-08-08T07:35:19;14.50;99.90
12885;DHT22;6510;51.362;7.370;2023-08-08T07:37:45;15.00;99.90
12885;DHT22;6510;51.362;7.370;2023-08-08T07:40:18;16.10;99.90
12885;DHT22;6510;51.362;7.370;2023-08-08T07:42:48;16.20;99.90
12885;DHT22;6510;51.362;7.370;2023-08-08T07:45:14;15.90;99.90
12885;DHT22;6510;51.362;7.370;2023-08-08T07:47:40;15.40;99.90
12885;DHT22;6510;51.362;7.370;2023-08-08T07:50:06;15.60;99.90
12885;DHT22;6510;51.362;7.370;2023-08-08T07:52:36;16.70;99.90
12885;DHT22;6510;51.362;7.370;2023-08-08T07:55:02;16.60;99.90
12885;DHT22;6510;51.362;7.370;2023-08-08T07:57:28;16.50;99.90
12885;DHT22;6510;51.362;7.370;2023-08-08T07:59:55;17.00;99.90
12885;DHT22;6510;51.362;7.370;2023-08-08T08:02:21;16.90;99.90
12885;DHT22;6510;51.362;7.370;2023-08-08T08:04:47;16.50;99.90
12885;DHT22;6510;51.362;7.370;2023-08-08T08:07:13;16.70;99.90
12885;DHT22;6510;51.362;7.370;2023-08-08T08:09:38;16.70;99.90
12885;DHT22;6510;51.362;7.370;2023-08-08T08:12:07;16.60;99.90
12885;DHT22;6510;51.362;7.370;2023-08-08T08:14:33;16.70;99.90
12885;DHT22;6510;51.362;7.370;2023-08-08T08:16:59;16.70;99.90
12885;DHT22;6510;51.362;7.370;2023-08-08T08:19:24;16.70;99.90
12885;DHT22;6510;51.362;7.370;2023-08-08T08:21:50;17.00;99.90
12885;DHT22;6510;51.362;7.370;2023-08-08T08:24:15;17.30;99.90
12885;DHT22;6510;51.362;7.370;2023-08-08T08:26:42;17.40;99.90
12885;DHT22;6510;51.362;7.370;2023-08-08T08:29:08;17.60;99.90
12885;DHT22;6510;51.362;7.370;2023-08-08T08:31:33;17.80;99.90
12885;DHT22;6510;51.362;7.370;2023-08-08T08:33:59;17.70;99.90
12885;DHT22;6510;51.362;7.370;2023-08-08T08:36:24;18.00;99.90
12885;DHT22;6510;51.362;7.370;2023-08-08T08:38:51;17.80;99.90
12885;DHT22;6510;51.362;7.370;2023-08-08T08:41:18;17.90;99.90
12885;DHT22;6510;51.362;7.370;2023-08-08T08:43:45;18.10;99.90
12885;DHT22;6510;51.362;7.370;2023-08-08T08:46:11;19.70;99.90
12885;DHT22;6510;51.362;7.370;2023-08-08T08:48:40;21.10;99.90
12885;DHT22;6510;51.362;7.370;2023-08-08T08:51:06;22.20;99.90
12885;DHT22;6510;51.362;7.370;2023-08-08T08:53:32;22.60;99.90
12885;DHT22;6510;51.362;7.370;2023-08-08T08:56:01;22.10;99.90
12885;DHT22;6510;51.362;7.370;2023-08-08T08:58:27;22.80;99.90
12885;DHT22;6510;51.362;7.370;2023-08-08T09:00:54;22.40;99.90
12885;DHT22;6510;51.362;7.370;2023-08-08T09:03:20;21.50;99.90
12885;DHT22;6510;51.362;7.370;2023-08-08T09:05:47;20.70;99.90
12885;DHT22;6510;51.362;7.370;2023-08-08T09:08:13;21.60;99.90
12885;DHT22;6510;51.362;7.370;2023-08-08T09:10:40;21.20;99.90
12885;DHT22;6510;51.362;7.370;2023-08-08T09:13:06;21.50;99.90
12885;DHT22;6510;51.362;7.370;2023-08-08T09:15:32;20.80;99.90
12885;DHT22;6510;51.362;7.370;2023-08-08T09:17:58;20.20;99.90
12885;DHT22;6510;51.362;7.370;2023-08-08T09:20:26;19.40;99.90
12885;DHT22;6510;51.362;7.370;2023-08-08T09:22:53;19.90;99.90
12885;DHT22;6510;51.362;7.370;2023-08-08T09:25:19;19.60;99.90
12885;DHT22;6510;51.362;7.370;2023-08-08T09:27:45;20.00;99.90
12885;DHT22;6510;51.362;7.370;2023-08-08T09:30:11;20.60;99.90
12885;DHT22;6510;51.362;7.370;2023-08-08T09:32:37;21.10;99.90
12885;DHT22;6510;51.362;7.370;2023-08-08T09:35:03;19.80;99.90
12885;DHT22;6510;51.362;7.370;2023-08-08T09:37:30;20.20;99.90
12885;DHT22;6510;51.362;7.370;2023-08-08T09:40:00;21.60;99.90
12885;DHT22;6510;51.362;7.370;2023-08-08T09:42:27;22.90;99.90
12885;DHT22;6510;51.362;7.370;2023-08-08T09:44:53;21.80;99.90
12885;DHT22;6510;51.362;7.370;2023-08-08T09:47:21;20.60;99.90
12885;DHT22;6510;51.362;7.370;2023-08-08T09:49:47;21.60;99.90
12885;DHT22;6510;51.362;7.370;2023-08-08T09:52:14;22.20;99.90
12885;DHT22;6510;51.362;7.370;2023-08-08T09:54:41;22.30;99.90
12885;DHT22;6510;51.362;7.370;2023-08-08T09:57:07;21.80;99.90
12885;DHT22;6510;51.362;7.370;2023-08-08T09:59:34;21.70;99.90
12885;DHT22;6510;51.362;7.370;2023-08-08T10:02:00;21.60;99.90
12885;DHT22;6510;51.362;7.370;2023-08-08T10:04:26;21.30;99.90
12885;DHT22;6510;51.362;7.370;2023-08-08T10:06:52;20.90;99.90
12885;DHT22;6510;51.362;7.370;2023-08-08T10:09:18;20.10;99.90
12885;DHT22;6510;51.362;7.370;2023-08-08T10:11:44;20.20;99.90
12885;DHT22;6510;51.362;7.370;2023-08-08T10:14:12;20.20;99.90
12885;DHT22;6510;51.362;7.370;2023-08-08T10:16:41;19.70;99.90
12885;DHT22;6510;51.362;7.370;2023-08-08T10:19:07;19.20;99.90
12885;DHT22;6510;51.362;7.370;2023-08-08T10:21:42;18.80;99.90
12885;DHT22;6510;51.362;7.370;2023-08-08T10:24:11;18.60;99.90
12885;DHT22;6510;51.362;7.370;2023-08-08T10:26:56;18.70;99.90
12885;DHT22;6510;51.362;7.370;2023-08-08T10:29:25;19.00;99.90
12885;DHT22;6510;51.362;7.370;2023-08-08T10:32:01;20.40;99.90
12885;DHT22;6510;51.362;7.370;2023-08-08T10:37:09;21.50;99.90
12885;DHT22;6510;51.362;7.370;2023-08-08T10:39:35;20.00;99.90
12885;DHT22;6510;51.362;7.370;2023-08-08T10:42:04;19.80;99.90
12885;DHT22;6510;51.362;7.370;2023-08-08T10:44:30;19.70;99.90
12885;DHT22;6510;51.362;7.370;2023-08-08T10:46:55;19.70;99.90
12885;DHT22;6510;51.362;7.370;2023-08-08T10:49:21;20.80;99.90
12885;DHT22;6510;51.362;7.370;2023-08-08T10:51:50;22.80;99.90
12885;DHT22;6510;51.362;7.370;2023-08-08T10:54:20;25.10;99.90
12885;DHT22;6510;51.362;7.370;2023-08-08T10:56:51;24.10;99.90
12885;DHT22;6510;51.362;7.370;2023-08-08T10:59:22;22.40;99.90
12885;DHT22;6510;51.362;7.370;2023-08-08T11:01:51;21.40;99.90
12885;DHT22;6510;51.362;7.370;2023-08-08T11:04:22;22.20;99.90
12885;DHT22;6510;51.362;7.370;2023-08-08T11:06:49;22.90;99.90
12885;DHT22;6510;51.362;7.370;2023-08-08T11:09:15;23.70;99.90
12885;DHT22;6510;51.362;7.370;2023-08-08T11:11:43;23.70;99.90
12885;DHT22;6510;51.362;7.370;2023-08-08T11:14:17;23.10;99.90
12885;DHT22;6510;51.362;7.370;2023-08-08T11:16:45;23.30;99.90
12885;DHT22;6510;51.362;7.370;2023-08-08T11:19:12;23.70;99.90
12885;DHT22;6510;51.362;7.370;2023-08-08T11:21:40;21.30;99.90
12885;DHT22;6510;51.362;7.370;2023-08-08T11:24:07;19.80;99.90
12885;DHT22;6510;51.362;7.370;2023-08-08T11:26:34;19.80;99.90
12885;DHT22;6510;51.362;7.370;2023-08-08T11:29:00;20.10;99.90
12885;DHT22;6510;51.362;7.370;2023-08-08T11:31:26;19.90;99.90
12885;DHT22;6510;51.362;7.370;2023-08-08T11:33:56;19.70;99.90
12885;DHT22;6510;51.362;7.370;2023-08-08T11:36:22;18.80;99.90
12885;DHT22;6510;51.362;7.370;2023-08-08T11:38:50;19.10;99.90
12885;DHT22;6510;51.362;7.370;2023-08-08T11:41:19;19.20;99.90
12885;DHT22;6510;51.362;7.370;2023-08-08T11:43:46;18.50;99.90
12885;DHT22;6510;51.362;7.370;2023-08-08T11:46:15;17.50;99.90
12885;DHT22;6510;51.362;7.370;2023-08-08T11:48:41;17.00;99.90
12885;DHT22;6510;51.362;7.370;2023-08-08T11:51:07;16.70;99.90
12885;DHT22;6510;51.362;7.370;2023-08-08T11:53:35;16.60;99.90
12885;DHT22;6510;51.362;7.370;2023-08-08T11:56:02;18.10;99.90
12885;DHT22;6510;51.362;7.370;2023-08-08T11:58:29;20.30;99.90
12885;DHT22;6510;51.362;7.370;2023-08-08T12:00:56;22.50;99.90
12885;DHT22;6510;51.362;7.370;2023-08-08T12:03:24;22.60;99.90
12885;DHT22;6510;51.362;7.370;2023-08-08T12:05:51;22.60;99.90
12885;DHT22;6510;51.362;7.370;2023-08-08T12:08:20;24.00;99.90
12885;DHT22;6510;51.362;7.370;2023-08-08T12:10:50;22.40;99.90
12885;DHT22;6510;51.362;7.370;2023-08-08T12:13:24;21.70;99.90
12885;DHT22;6510;51.362;7.370;2023-08-08T12:15:54;22.30;99.90
12885;DHT22;6510;51.362;7.370;2023-08-08T12:18:19;23.30;99.90
12885;DHT22;6510;51.362;7.370;2023-08-08T12:20:46;23.40;99.90
12885;DHT22;6510;51.362;7.370;2023-08-08T12:23:12;21.40;99.90
12885;DHT22;6510;51.362;7.370;2023-08-08T12:25:38;20.20;99.90
12885;DHT22;6510;51.362;7.370;2023-08-08T12:28:04;19.20;99.90
12885;DHT22;6510;51.362;7.370;2023-08-08T12:30:30;18.50;99.90
12885;DHT22;6510;51.362;7.370;2023-08-08T12:32:57;17.90;99.90
12885;DHT22;6510;51.362;7.370;2023-08-08T12:35:22;17.20;99.90
12885;DHT22;6510;51.362;7.370;2023-08-08T12:37:48;16.70;99.90
12885;DHT22;6510;51.362;7.370;2023-08-08T12:40:14;16.40;99.90
12885;DHT22;6510;51.362;7.370;2023-08-08T12:42:39;16.10;99.90
12885;DHT22;6510;51.362;7.370;2023-08-08T12:45:06;16.00;99.90
12885;DHT22;6510;51.362;7.370;2023-08-08T12:47:32;16.10;99.90
12885;DHT22;6510;51.362;7.370;2023-08-08T12:50:02;16.20;99.90
12885;DHT22;6510;51.362;7.370;2023-08-08T12:52:28;16.10;99.90
12885;DHT22;6510;51.362;7.370;2023-08-08T12:54:53;16.30;99.90
12885;DHT22;6510;51.362;7.370;2023-08-08T12:57:19;16.20;99.90
12885;DHT22;6510;51.362;7.370;2023-08-08T12:59:45;16.40;99.90
12885;DHT22;6510;51.362;7.370;2023-08-08T13:02:10;16.60;99.90
12885;DHT22;6510;51.362;7.370;2023-08-08T13:04:36;17.10;99.90
12885;DHT22;6510;51.362;7.370;2023-08-08T13:07:01;18.10;99.90
12885;DHT22;6510;51.362;7.370;2023-08-08T13:09:27;19.60;99.90
12885;DHT22;6510;51.362;7.370;2023-08-08T13:11:52;20.20;99.90
12885;DHT22;6510;51.362;7.370;2023-08-08T13:14:18;21.00;99.90
12885;DHT22;6510;51.362;7.370;2023-08-08T13:16:43;21.30;99.90
12885;DHT22;6510;51.362;7.370;2023-08-08T13:19:15;21.90;99.90
12885;DHT22;6510;51.362;7.370;2023-08-08T13:21:44;22.10;99.90
12885;DHT22;6510;51.362;7.370;2023-08-08T13:24:12;21.00;99.90
12885;DHT22;6510;51.362;7.370;2023-08-08T13:26:41;20.30;99.90
12885;DHT22;6510;51.362;7.370;2023-08-08T13:29:07;21.70;99.90
12885;DHT22;6510;51.362;7.370;2023-08-08T13:31:33;22.30;99.90
12885;DHT22;6510;51.362;7.370;2023-08-08T13:33:59;22.10;99.90
12885;DHT22;6510;51.362;7.370;2023-08-08T13:36:24;22.40;99.90
12885;DHT22;6510;51.362;7.370;2023-08-08T13:38:50;23.90;99.90
12885;DHT22;6510;51.362;7.370;2023-08-08T13:41:16;23.60;99.90
12885;DHT22;6510;51.362;7.370;2023-08-08T13:43:41;22.80;99.90
12885;DHT22;6510;51.362;7.370;2023-08-08T13:46:07;22.10;99.90
12885;DHT22;6510;51.362;7.370;2023-08-08T13:48:35;23.10;99.90
12885;DHT22;6510;51.362;7.370;2023-08-08T13:51:01;23.10;99.90
12885;DHT22;6510;51.362;7.370;2023-08-08T13:53:27;21.50;99.90
12885;DHT22;6510;51.362;7.370;2023-08-08T13:55:53;19.60;99.90
12885;DHT22;6510;51.362;7.370;2023-08-08T13:58:19;18.70;99.90
12885;DHT22;6510;51.362;7.370;2023-08-08T14:00:47;18.70;99.90
12885;DHT22;6510;51.362;7.370;2023-08-08T14:03:13;18.90;99.90
12885;DHT22;6510;51.362;7.370;2023-08-08T14:05:39;20.80;99.90
12885;DHT22;6510;51.362;7.370;2023-08-08T14:08:05;22.10;99.90
12885;DHT22;6510;51.362;7.370;2023-08-08T14:10:31;22.80;99.90
12885;DHT22;6510;51.362;7.370;2023-08-08T14:12:56;21.80;99.90
12885;DHT22;6510;51.362;7.370;2023-08-08T14:15:22;20.30;99.90
12885;DHT22;6510;51.362;7.370;2023-08-08T14:17:48;19.60;99.90
12885;DHT22;6510;51.362;7.370;2023-08-08T14:20:14;19.30;99.90
12885;DHT22;6510;51.362;7.370;2023-08-08T14:22:44;19.00;99.90
12885;DHT22;6510;51.362;7.370;2023-08-08T14:25:12;19.10;99.90
12885;DHT22;6510;51.362;7.370;2023-08-08T14:27:37;19.40;99.90
12885;DHT22;6510;51.362;7.370;2023-08-08T14:30:03;19.80;99.90
12885;DHT22;6510;51.362;7.370;2023-08-08T14:32:30;19.60;99.90
12885;DHT22;6510;51.362;7.370;2023-08-08T14:34:55;19.00;99.90
12885;DHT22;6510;51.362;7.370;2023-08-08T14:37:21;18.60;99.90
12885;DHT22;6510;51.362;7.370;2023-08-08T14:39:47;18.60;99.90
12885;DHT22;6510;51.362;7.370;2023-08-08T14:42:12;18.60;99.90
12885;DHT22;6510;51.362;7.370;2023-08-08T14:44:38;18.30;99.90
12885;DHT22;6510;51.362;7.370;2023-08-08T14:47:04;18.70;99.90
12885;DHT22;6510;51.362;7.370;2023-08-08T14:49:30;19.40;99.90
12885;DHT22;6510;51.362;7.370;2023-08-08T14:51:55;19.80;99.90
12885;DHT22;6510;51.362;7.370;2023-08-08T14:54:21;19.50;99.90
12885;DHT22;6510;51.362;7.370;2023-08-08T14:56:47;18.90;99.90
12885;DHT22;6510;51.362;7.370;2023-08-08T14:59:12;18.50;99.90
12885;DHT22;6510;51.362;7.370;2023-08-08T15:01:38;18.50;99.90
12885;DHT22;6510;51.362;7.370;2023-08-08T15:04:04;18.60;99.90
12885;DHT22;6510;51.362;7.370;2023-08-08T15:06:30;18.60;99.90
12885;DHT22;6510;51.362;7.370;2023-08-08T15:08:55;18.50;99.90
12885;DHT22;6510;51.362;7.370;2023-08-08T15:11:21;18.40;99.90
12885;DHT22;6510;51.362;7.370;2023-08-08T15:13:46;18.20;99.90
12885;DHT22;6510;51.362;7.370;2023-08-08T15:16:12;18.00;99.90
12885;DHT22;6510;51.362;7.370;2023-08-08T15:18:39;17.80;99.90
12885;DHT22;6510;51.362;7.370;2023-08-08T15:21:05;18.00;99.90
12885;DHT22;6510;51.362;7.370;2023-08-08T15:23:30;18.40;99.90
12885;DHT22;6510;51.362;7.370;2023-08-08T15:25:58;18.40;99.90
12885;DHT22;6510;51.362;7.370;2023-08-08T15:28:24;18.30;99.90
12885;DHT22;6510;51.362;7.370;2023-08-08T15:30:50;18.30;99.90
12885;DHT22;6510;51.362;7.370;2023-08-08T15:33:16;18.40;99.90
12885;DHT22;6510;51.362;7.370;2023-08-08T15:35:42;18.20;99.90
12885;DHT22;6510;51.362;7.370;2023-08-08T15:38:08;18.30;99.90
12885;DHT22;6510;51.362;7.370;2023-08-08T15:40:33;18.30;99.90
12885;DHT22;6510;51.362;7.370;2023-08-08T15:42:59;18.30;99.90
12885;DHT22;6510;51.362;7.370;2023-08-08T15:45:25;18.60;99.90
12885;DHT22;6510;51.362;7.370;2023-08-08T15:47:50;18.90;99.90